createdAt,value
2019-03-09T00:01:31.968Z,4.97
2019-03-09T00:04:00.249Z,5.50
2019-03-09T00:06:28.547Z,4.90
2019-03-09T00:08:56.752Z,4.73
2019-03-09T00:11:24.869Z,5.77
2019-03-09T00:13:53.072Z,4.50
2019-03-09T00:16:21.275Z,4.87
2019-03-09T00:18:49.589Z,6.00
2019-03-09T00:21:17.671Z,4.93
2019-03-09T00:24:14.115Z,6.37
2019-03-09T00:27:05.005Z,5.97
2019-03-09T00:29:39.245Z,6.50
2019-03-09T00:32:10.238Z,6.60
2019-03-09T00:34:38.718Z,6.33
2019-03-09T00:37:06.818Z,6.67
2019-03-09T00:39:34.982Z,7.40
2019-03-09T00:42:03.129Z,7.37
2019-03-09T00:44:31.249Z,8.10
2019-03-09T00:46:59.318Z,6.90
2019-03-09T00:49:27.659Z,7.43
2019-03-09T00:51:55.724Z,5.87
2019-03-09T00:54:23.845Z,6.87
2019-03-09T00:56:52.011Z,6.63
2019-03-09T00:59:20.206Z,5.33
2019-03-09T01:01:48.267Z,6.57
2019-03-09T01:04:16.661Z,6.40
2019-03-09T01:06:44.862Z,5.77
2019-03-09T01:09:13.130Z,4.77
2019-03-09T01:11:41.577Z,5.53
2019-03-09T01:14:09.644Z,5.10
2019-03-09T01:16:37.748Z,6.60
2019-03-09T01:19:05.793Z,4.67
2019-03-09T01:21:33.892Z,5.13
2019-03-09T01:24:02.821Z,5.37
2019-03-09T01:26:30.996Z,4.87
2019-03-09T01:28:59.091Z,5.03
2019-03-09T01:31:27.407Z,5.57
2019-03-09T01:33:55.531Z,4.57
2019-03-09T01:36:23.608Z,4.87
2019-03-09T01:38:51.681Z,6.00
2019-03-09T01:41:19.784Z,5.90
2019-03-09T01:43:47.859Z,5.60
2019-03-09T01:46:16.106Z,5.57
2019-03-09T01:48:44.194Z,5.73
2019-03-09T01:51:12.306Z,5.13
2019-03-09T01:53:40.403Z,5.07
2019-03-09T01:56:08.505Z,4.73
2019-03-09T01:58:37.202Z,5.43
2019-03-09T02:01:05.278Z,5.27
2019-03-09T02:03:33.394Z,5.57
2019-03-09T02:06:01.566Z,4.90
2019-03-09T02:08:29.765Z,5.07
2019-03-09T02:10:57.925Z,6.30
2019-03-09T02:13:26.022Z,4.37
2019-03-09T02:15:54.117Z,5.63
2019-03-09T02:18:22.170Z,6.20
2019-03-09T02:20:51.173Z,6.13
2019-03-09T02:23:19.258Z,4.20
2019-03-09T02:25:47.355Z,5.27
2019-03-09T02:28:15.412Z,4.97
2019-03-09T02:30:43.563Z,6.10
2019-03-09T02:33:11.624Z,6.47
2019-03-09T02:35:39.685Z,6.60
2019-03-09T02:38:15.546Z,6.90
2019-03-09T02:40:43.603Z,7.13
2019-03-09T02:43:11.780Z,7.30
2019-03-09T02:45:39.994Z,6.50
2019-03-09T02:48:08.138Z,7.20
2019-03-09T02:50:38.070Z,6.00
2019-03-09T02:53:06.163Z,4.73
2019-03-09T02:55:34.384Z,6.67
2019-03-09T02:58:03.781Z,4.90
2019-03-09T03:00:38.465Z,6.23
2019-03-09T03:03:06.574Z,5.73
2019-03-09T03:05:34.647Z,6.23
2019-03-09T03:08:02.737Z,6.90
2019-03-09T03:10:30.931Z,6.20
2019-03-09T03:12:59.000Z,6.70
2019-03-09T03:15:31.111Z,6.10
2019-03-09T03:17:59.227Z,6.70
2019-03-09T03:20:27.344Z,6.73
2019-03-09T03:22:55.434Z,6.23
2019-03-09T03:25:24.913Z,4.63
2019-03-09T03:27:53.097Z,6.80
2019-03-09T03:30:21.176Z,5.97
2019-03-09T03:32:49.470Z,6.83
2019-03-09T03:35:17.611Z,6.17
2019-03-09T03:37:45.694Z,6.60
2019-03-09T03:40:35.108Z,6.93
2019-03-09T03:43:03.175Z,7.63
2019-03-09T03:45:31.256Z,8.30
2019-03-09T03:47:59.344Z,6.37
2019-03-09T03:50:27.735Z,7.40
2019-03-09T03:52:55.796Z,7.70
2019-03-09T03:55:23.872Z,5.53
2019-03-09T03:57:51.982Z,7.10
2019-03-09T04:00:21.080Z,7.63
2019-03-09T04:02:49.137Z,7.10
2019-03-09T04:05:17.232Z,7.73
2019-03-09T04:07:45.526Z,5.97
2019-03-09T04:10:14.041Z,7.93
2019-03-09T04:12:42.286Z,7.50
2019-03-09T04:15:10.710Z,7.30
2019-03-09T04:17:38.772Z,6.60
2019-03-09T04:20:07.618Z,6.43
2019-03-09T04:22:35.683Z,5.73
2019-03-09T04:25:03.877Z,4.30
2019-03-09T04:27:32.372Z,5.30
2019-03-09T04:30:00.548Z,5.57
2019-03-09T04:32:28.677Z,5.37
2019-03-09T04:34:56.774Z,5.40
2019-03-09T04:37:24.833Z,5.73
2019-03-09T04:39:52.966Z,5.33
2019-03-09T04:42:21.009Z,4.60
2019-03-09T04:44:49.386Z,5.17
2019-03-09T04:47:17.508Z,5.20
2019-03-09T04:49:45.564Z,5.63
2019-03-09T04:52:13.688Z,5.27
2019-03-09T04:54:41.750Z,5.00
2019-03-09T04:57:09.839Z,4.77
2019-03-09T04:59:37.905Z,5.20
2019-03-09T05:02:06.182Z,5.23
2019-03-09T05:04:41.453Z,3.80
2019-03-09T05:07:09.684Z,4.67
2019-03-09T05:09:48.907Z,4.30
2019-03-09T05:12:17.026Z,4.20
2019-03-09T05:14:45.094Z,4.10
2019-03-09T05:17:13.633Z,3.63
2019-03-09T05:19:42.099Z,3.80
2019-03-09T05:22:10.180Z,3.33
2019-03-09T05:24:38.299Z,3.70
2019-03-09T05:27:06.463Z,3.70
2019-03-09T05:29:34.578Z,3.60
2019-03-09T05:32:04.506Z,3.87
2019-03-09T05:34:33.642Z,3.67
2019-03-09T05:37:01.742Z,3.60
2019-03-09T05:39:30.181Z,3.37
2019-03-09T05:41:58.377Z,3.30
2019-03-09T05:44:26.517Z,3.27
2019-03-09T05:46:54.578Z,3.73
2019-03-09T05:49:22.664Z,3.30
2019-03-09T05:52:09.075Z,3.70
2019-03-09T05:54:37.157Z,3.63
2019-03-09T05:57:05.276Z,3.90
2019-03-09T05:59:33.397Z,3.60
2019-03-09T06:02:02.059Z,3.40
2019-03-09T06:04:30.219Z,3.40
2019-03-09T06:06:58.278Z,3.47
2019-03-09T06:09:26.347Z,3.27
2019-03-09T06:11:54.505Z,3.27
2019-03-09T06:14:22.577Z,3.43
2019-03-09T06:16:50.676Z,3.80
2019-03-09T06:19:18.909Z,3.70
2019-03-09T06:21:47.096Z,3.90
2019-03-09T06:24:15.163Z,3.33
2019-03-09T06:26:43.235Z,3.27
2019-03-09T06:29:11.354Z,3.70
2019-03-09T06:31:39.565Z,3.43
2019-03-09T06:34:07.623Z,4.00
2019-03-09T06:37:02.509Z,3.60
2019-03-09T06:39:31.762Z,3.30
2019-03-09T06:42:19.055Z,2.80
2019-03-09T06:44:47.249Z,3.27
2019-03-09T06:47:15.299Z,3.20
2019-03-09T06:49:43.516Z,2.80
2019-03-09T06:52:11.618Z,3.00
2019-03-09T06:54:39.751Z,2.93
2019-03-09T06:57:13.788Z,2.97
2019-03-09T06:59:37.591Z,3.00
2019-03-09T07:02:05.965Z,3.83
2019-03-09T07:04:34.116Z,2.73
2019-03-09T07:07:02.241Z,2.43
2019-03-09T07:09:30.335Z,3.03
2019-03-09T07:11:58.424Z,3.50
2019-03-09T07:14:44.367Z,3.40
2019-03-09T07:17:12.450Z,3.07
2019-03-09T07:19:40.547Z,2.87
2019-03-09T07:22:08.664Z,2.70
2019-03-09T07:24:36.791Z,3.60
2019-03-09T07:27:05.065Z,3.10
2019-03-09T07:29:33.207Z,2.50
2019-03-09T07:32:02.474Z,2.00
2019-03-09T07:34:30.554Z,2.43
2019-03-09T07:36:58.889Z,2.70
2019-03-09T07:39:26.961Z,2.17
2019-03-09T07:41:55.064Z,2.23
2019-03-09T07:44:23.124Z,3.20
2019-03-09T07:46:51.201Z,3.70
2019-03-09T07:49:19.290Z,2.70
2019-03-09T07:51:47.404Z,3.00
2019-03-09T07:54:15.907Z,3.00
2019-03-09T07:56:43.973Z,3.00
2019-03-09T07:59:12.048Z,2.37
2019-03-09T08:01:40.202Z,2.77
2019-03-09T08:04:08.271Z,3.00
2019-03-09T08:06:36.388Z,2.50
2019-03-09T08:09:05.241Z,2.33
2019-03-09T08:11:33.331Z,2.20
2019-03-09T08:14:01.606Z,3.30
2019-03-09T08:16:35.886Z,3.30
2019-03-09T08:18:59.637Z,2.90
2019-03-09T08:21:27.735Z,2.90
2019-03-09T08:23:56.607Z,2.77
2019-03-09T08:26:24.634Z,2.90
2019-03-09T08:28:52.740Z,2.73
2019-03-09T08:31:20.806Z,2.57
2019-03-09T08:33:48.993Z,2.63
2019-03-09T08:36:17.158Z,3.60
2019-03-09T08:38:45.208Z,3.00
2019-03-09T08:41:13.387Z,3.60
2019-03-09T08:43:41.530Z,3.03
2019-03-09T08:46:09.814Z,3.37
2019-03-09T08:48:37.864Z,2.97
2019-03-09T08:51:05.970Z,4.17
2019-03-09T08:53:34.045Z,3.80
2019-03-09T08:56:02.542Z,3.87
2019-03-09T08:58:30.937Z,3.87
2019-03-09T09:00:59.070Z,3.47
2019-03-09T09:03:27.152Z,4.30
2019-03-09T09:05:55.449Z,4.30
2019-03-09T09:08:23.546Z,4.30
2019-03-09T09:10:51.624Z,4.00
2019-03-09T09:13:19.727Z,3.73
2019-03-09T09:15:47.916Z,4.37
2019-03-09T09:18:16.072Z,3.97
2019-03-09T09:20:44.290Z,4.50
2019-03-09T09:23:12.620Z,3.90
2019-03-09T09:25:40.758Z,4.57
2019-03-09T09:28:08.845Z,4.83
2019-03-09T09:30:37.076Z,4.00
2019-03-09T09:33:05.193Z,4.00
2019-03-09T09:35:33.367Z,4.40
2019-03-09T09:38:01.487Z,4.37
2019-03-09T09:40:29.645Z,5.30
2019-03-09T09:42:57.716Z,5.17
2019-03-09T09:45:25.878Z,4.63
2019-03-09T09:47:54.019Z,3.93
2019-03-09T09:50:22.359Z,5.00
2019-03-09T09:52:50.406Z,5.13
2019-03-09T09:55:18.572Z,5.00
2019-03-09T09:57:46.823Z,4.77
2019-03-09T10:00:16.161Z,4.57
2019-03-09T10:02:44.227Z,5.10
2019-03-09T10:05:12.378Z,4.50
2019-03-09T10:07:40.568Z,4.73
2019-03-09T10:10:09.650Z,5.07
2019-03-09T10:12:37.793Z,5.47
2019-03-09T10:15:07.500Z,5.03
2019-03-09T10:17:35.574Z,4.90
2019-03-09T10:20:03.817Z,5.10
2019-03-09T10:22:31.896Z,5.47
2019-03-09T10:25:00.060Z,4.77
2019-03-09T10:27:28.370Z,4.77
2019-03-09T10:29:56.446Z,5.40
2019-03-09T10:32:24.633Z,5.53
2019-03-09T10:34:52.743Z,4.80
2019-03-09T10:37:20.868Z,5.00
2019-03-09T10:39:49.061Z,4.87
2019-03-09T10:42:17.176Z,5.13
2019-03-09T10:44:45.270Z,4.80
2019-03-09T10:47:13.490Z,4.80
2019-03-09T10:49:41.607Z,4.87
2019-03-09T10:52:09.698Z,4.23
2019-03-09T10:54:37.827Z,6.27
2019-03-09T10:57:05.998Z,5.70
2019-03-09T10:59:34.131Z,6.17
2019-03-09T11:02:02.567Z,4.73
2019-03-09T11:04:30.759Z,4.70
2019-03-09T11:06:58.950Z,5.33
2019-03-09T11:09:30.059Z,4.07
2019-03-09T11:12:00.469Z,4.30
2019-03-09T11:14:28.531Z,4.57
2019-03-09T11:16:56.636Z,4.23
2019-03-09T11:19:24.807Z,4.10
2019-03-09T11:21:52.920Z,4.00
2019-03-09T11:24:21.107Z,3.50
2019-03-09T11:26:49.207Z,4.40
2019-03-09T11:29:17.320Z,3.93
2019-03-09T11:31:45.607Z,4.43
2019-03-09T11:34:13.724Z,4.00
2019-03-09T11:36:41.809Z,4.30
2019-03-09T11:39:09.933Z,3.90
2019-03-09T11:41:38.043Z,3.53
2019-03-09T11:44:06.152Z,3.63
2019-03-09T11:46:34.220Z,3.30
2019-03-09T11:49:02.325Z,4.07
2019-03-09T11:51:30.465Z,3.33
2019-03-09T11:53:58.536Z,3.17
2019-03-09T11:56:26.712Z,2.67
2019-03-09T11:58:54.860Z,3.37
2019-03-09T12:01:22.966Z,4.03
2019-03-09T12:03:51.200Z,4.33
2019-03-09T12:06:19.279Z,4.00
2019-03-09T12:08:47.536Z,4.27
2019-03-09T12:11:15.679Z,4.10
2019-03-09T12:13:43.769Z,4.03
2019-03-09T12:16:11.881Z,3.80
2019-03-09T12:18:39.968Z,3.87
2019-03-09T12:21:08.046Z,4.17
2019-03-09T12:23:36.814Z,2.97
2019-03-09T12:26:04.885Z,3.60
2019-03-09T12:28:33.136Z,3.37
2019-03-09T12:31:01.205Z,2.80
2019-03-09T12:33:29.293Z,3.70
2019-03-09T12:35:57.443Z,4.33
2019-03-09T12:38:25.521Z,3.90
2019-03-09T12:40:53.633Z,4.30
2019-03-09T12:43:21.818Z,3.60
2019-03-09T12:45:50.036Z,3.73
2019-03-09T12:48:18.115Z,4.30
2019-03-09T12:50:46.343Z,3.87
2019-03-09T12:53:14.704Z,4.00
2019-03-09T12:55:42.850Z,4.40
2019-03-09T12:58:11.210Z,3.50
2019-03-09T13:00:39.305Z,3.93
2019-03-09T13:03:08.405Z,4.17
2019-03-09T13:05:36.598Z,3.97
2019-03-09T13:08:04.748Z,4.30
2019-03-09T13:10:32.863Z,3.80
2019-03-09T13:13:00.955Z,4.40
2019-03-09T13:15:30.085Z,4.80
2019-03-09T13:17:58.177Z,4.03
2019-03-09T13:20:26.328Z,5.50
2019-03-09T13:22:54.561Z,5.40
2019-03-09T13:25:22.667Z,6.53
2019-03-09T13:27:50.737Z,3.67
2019-03-09T13:30:21.170Z,5.10
2019-03-09T13:32:49.262Z,3.37
2019-03-09T13:35:17.370Z,5.13
2019-03-09T13:37:45.685Z,7.07
2019-03-09T13:40:16.328Z,7.40
2019-03-09T13:42:44.571Z,5.60
2019-03-09T13:45:12.869Z,6.27
2019-03-09T13:47:40.985Z,5.87
2019-03-09T13:50:09.422Z,5.73
2019-03-09T13:52:37.510Z,5.20
2019-03-09T13:55:05.881Z,4.97
2019-03-09T13:57:33.995Z,6.07
2019-03-09T14:00:02.096Z,5.17
2019-03-09T14:02:30.212Z,4.53
2019-03-09T14:04:58.282Z,5.23
2019-03-09T14:07:26.366Z,4.77
2019-03-09T14:09:54.490Z,4.53
2019-03-09T14:12:22.628Z,3.27
2019-03-09T14:14:50.697Z,2.57
2019-03-09T14:17:18.817Z,2.27
2019-03-09T14:19:46.945Z,2.70
2019-03-09T14:22:15.060Z,2.20
2019-03-09T14:24:43.167Z,2.90
2019-03-09T14:27:11.236Z,2.33
2019-03-09T14:29:39.399Z,2.33
2019-03-09T14:32:07.513Z,2.50
2019-03-09T14:34:35.642Z,2.63
2019-03-09T14:37:03.730Z,3.20
2019-03-09T14:39:31.795Z,2.37
2019-03-09T14:42:01.976Z,3.50
2019-03-09T14:44:30.061Z,4.23
2019-03-09T14:46:58.183Z,4.83
2019-03-09T14:49:26.404Z,3.70
2019-03-09T14:51:54.555Z,4.67
2019-03-09T14:54:22.638Z,5.27
2019-03-09T14:56:50.840Z,4.43
2019-03-09T14:59:19.068Z,2.03
2019-03-09T15:01:47.479Z,1.87
2019-03-09T15:04:15.606Z,2.03
2019-03-09T15:06:43.690Z,1.83
2019-03-09T15:09:11.797Z,1.53
2019-03-09T15:11:39.863Z,1.67
2019-03-09T15:14:08.075Z,1.97
2019-03-09T15:16:36.203Z,2.00
2019-03-09T15:19:06.050Z,1.80
2019-03-09T15:21:34.155Z,2.07
2019-03-09T15:24:02.226Z,1.17
2019-03-09T15:26:30.316Z,1.93
2019-03-09T15:28:58.423Z,1.43
2019-03-09T15:31:26.561Z,1.33
2019-03-09T15:33:54.777Z,1.47
2019-03-09T15:36:22.988Z,1.83
2019-03-09T15:38:51.074Z,1.70
2019-03-09T15:41:19.256Z,1.57
2019-03-09T15:43:47.454Z,1.93
2019-03-09T15:46:15.623Z,1.40
2019-03-09T15:48:43.937Z,1.60
2019-03-09T15:51:11.975Z,1.50
2019-03-09T15:53:40.207Z,1.93
2019-03-09T15:56:10.167Z,1.70
2019-03-09T15:58:38.204Z,1.50
2019-03-09T16:01:06.304Z,1.73
2019-03-09T16:03:34.548Z,2.07
2019-03-09T16:06:02.753Z,1.80
2019-03-09T16:08:30.953Z,1.90
2019-03-09T16:10:59.100Z,2.50
2019-03-09T16:13:27.334Z,1.70
2019-03-09T16:15:55.706Z,2.13
2019-03-09T16:18:23.810Z,2.13
2019-03-09T16:20:52.639Z,2.00
2019-03-09T16:23:20.790Z,2.10
2019-03-09T16:25:48.911Z,1.53
2019-03-09T16:28:16.976Z,1.90
2019-03-09T16:30:45.179Z,2.50
2019-03-09T16:33:13.302Z,2.10
2019-03-09T16:35:41.535Z,2.53
2019-03-09T16:38:09.679Z,2.50
2019-03-09T16:40:40.691Z,2.47
2019-03-09T16:43:07.511Z,2.13
2019-03-09T16:45:35.726Z,2.37
2019-03-09T16:48:03.917Z,2.27
2019-03-09T16:50:32.050Z,2.50
2019-03-09T16:53:00.121Z,2.77
2019-03-09T16:55:28.548Z,2.37
2019-03-09T16:57:58.359Z,2.00
2019-03-09T17:00:26.447Z,1.83
2019-03-09T17:02:55.842Z,1.63
2019-03-09T17:05:23.977Z,1.53
2019-03-09T17:07:52.065Z,1.40
2019-03-09T17:10:20.304Z,1.37
2019-03-09T17:12:48.414Z,1.43
2019-03-09T17:15:16.526Z,1.43
2019-03-09T17:17:44.617Z,1.23
2019-03-09T17:20:13.364Z,1.97
2019-03-09T17:22:41.661Z,1.57
2019-03-09T17:25:09.857Z,1.40
2019-03-09T17:27:37.969Z,1.97
2019-03-09T17:30:06.344Z,1.50
2019-03-09T17:32:34.499Z,1.37
2019-03-09T17:35:02.632Z,1.90
2019-03-09T17:37:31.024Z,1.50
2019-03-09T17:39:59.117Z,1.87
2019-03-09T17:42:27.237Z,1.30
2019-03-09T17:44:55.340Z,1.43
2019-03-09T17:47:23.485Z,1.67
2019-03-09T17:49:51.750Z,2.40
2019-03-09T17:52:19.885Z,1.90
2019-03-09T17:54:48.138Z,1.80
2019-03-09T17:57:16.247Z,2.00
2019-03-09T17:59:44.329Z,1.73
2019-03-09T18:02:12.469Z,2.20
2019-03-09T18:04:41.273Z,1.93
2019-03-09T18:07:09.414Z,2.17
2019-03-09T18:09:37.564Z,1.50
2019-03-09T18:12:05.727Z,1.67
2019-03-09T18:14:33.828Z,2.00
2019-03-09T18:17:02.454Z,1.87
2019-03-09T18:19:30.935Z,2.00
2019-03-09T18:21:59.069Z,2.10
2019-03-09T18:24:27.155Z,1.60
2019-03-09T18:26:55.582Z,2.17
2019-03-09T18:29:23.761Z,2.43
2019-03-09T18:31:52.028Z,1.97
2019-03-09T18:34:20.244Z,1.23
2019-03-09T18:36:48.378Z,2.10
2019-03-09T18:39:16.480Z,1.83
2019-03-09T18:41:44.639Z,2.57
2019-03-09T18:44:12.751Z,2.13
2019-03-09T18:46:41.138Z,2.67
2019-03-09T18:49:09.262Z,2.67
2019-03-09T18:51:37.453Z,2.77
2019-03-09T18:54:05.817Z,2.33
2019-03-09T18:56:33.915Z,2.23
2019-03-09T18:59:04.225Z,2.10
2019-03-09T19:01:33.767Z,2.50
2019-03-09T19:04:02.060Z,2.50
2019-03-09T19:06:30.466Z,2.73
2019-03-09T19:08:59.102Z,2.50
2019-03-09T19:11:27.192Z,2.30
2019-03-09T19:13:55.876Z,2.60
2019-03-09T19:16:24.093Z,3.07
2019-03-09T19:18:52.360Z,3.10
2019-03-09T19:21:20.706Z,2.77
2019-03-09T19:23:48.807Z,2.43
2019-03-09T19:26:16.909Z,2.33
2019-03-09T19:28:45.065Z,2.30
2019-03-09T19:31:13.185Z,3.10
2019-03-09T19:33:41.308Z,2.70
2019-03-09T19:36:09.444Z,3.60
2019-03-09T19:38:37.589Z,3.03
2019-03-09T19:41:05.864Z,3.70
2019-03-09T19:43:34.261Z,4.27
2019-03-09T19:46:02.455Z,3.33
2019-03-09T19:48:30.671Z,3.23
2019-03-09T19:50:59.888Z,2.50
2019-03-09T19:53:28.021Z,2.60
2019-03-09T19:55:56.159Z,3.07
2019-03-09T19:58:24.638Z,3.57
2019-03-09T20:00:52.865Z,3.20
2019-03-09T20:03:21.057Z,3.57
2019-03-09T20:05:49.264Z,3.20
2019-03-09T20:08:17.642Z,3.97
2019-03-09T20:10:45.851Z,2.83
2019-03-09T20:13:14.024Z,3.70
2019-03-09T20:15:42.180Z,3.67
2019-03-09T20:18:10.286Z,3.97
2019-03-09T20:20:38.744Z,3.70
2019-03-09T20:23:06.900Z,3.73
2019-03-09T20:25:35.041Z,3.80
2019-03-09T20:28:03.169Z,3.60
2019-03-09T20:30:31.326Z,3.80
2019-03-09T20:32:59.454Z,4.03
2019-03-09T20:35:27.641Z,3.40
2019-03-09T20:37:56.677Z,2.40
2019-03-09T20:40:24.875Z,4.20
2019-03-09T20:42:54.417Z,3.10
2019-03-09T20:45:24.905Z,3.07
2019-03-09T20:47:53.182Z,3.37
2019-03-09T20:50:21.447Z,2.80
2019-03-09T20:52:49.602Z,2.80
2019-03-09T20:55:17.720Z,3.40
2019-03-09T20:57:47.263Z,3.50
2019-03-09T21:00:16.975Z,4.20
2019-03-09T21:02:45.120Z,3.63
2019-03-09T21:05:13.654Z,3.43
2019-03-09T21:07:41.819Z,3.60
2019-03-09T21:10:10.356Z,3.57
2019-03-09T21:12:40.012Z,3.30
2019-03-09T21:15:08.140Z,3.50
2019-03-09T21:17:37.226Z,3.13
2019-03-09T21:20:05.586Z,3.40
2019-03-09T21:22:33.715Z,3.90
2019-03-09T21:25:04.644Z,3.50
2019-03-09T21:27:32.775Z,3.60
2019-03-09T21:30:00.865Z,3.77
2019-03-09T21:32:28.992Z,3.93
2019-03-09T21:34:57.116Z,3.60
2019-03-09T21:37:26.900Z,3.70
2019-03-09T21:39:55.172Z,4.13
2019-03-09T21:42:23.299Z,3.13
2019-03-09T21:44:51.696Z,3.30
2019-03-09T21:47:20.060Z,4.20
2019-03-09T21:49:49.288Z,3.33
2019-03-09T21:52:17.439Z,4.47
2019-03-09T21:54:45.601Z,3.73
2019-03-09T21:57:13.712Z,3.83
2019-03-09T21:59:41.888Z,3.30
2019-03-09T22:02:10.150Z,3.63
2019-03-09T22:04:38.385Z,3.50
2019-03-09T22:07:06.462Z,3.97
2019-03-09T22:09:34.608Z,3.10
2019-03-09T22:12:02.786Z,3.40
2019-03-09T22:14:31.139Z,4.27
2019-03-09T22:16:59.270Z,3.83
2019-03-09T22:19:27.582Z,3.57
2019-03-09T22:21:55.746Z,3.73
2019-03-09T22:24:23.823Z,3.37
2019-03-09T22:26:51.892Z,3.70
2019-03-09T22:29:20.074Z,4.33
2019-03-09T22:31:48.161Z,3.20
2019-03-09T22:34:16.595Z,3.53
2019-03-09T22:36:44.658Z,3.57
2019-03-09T22:39:12.742Z,3.83
2019-03-09T22:41:40.936Z,3.63
2019-03-09T22:44:09.035Z,3.97
2019-03-09T22:46:37.164Z,2.80
2019-03-09T22:49:05.258Z,3.23
2019-03-09T22:51:33.303Z,2.53
2019-03-09T22:54:03.158Z,3.47
2019-03-09T22:56:31.243Z,3.50
2019-03-09T22:58:59.341Z,3.83
2019-03-09T23:01:27.482Z,3.20
2019-03-09T23:03:55.733Z,3.70
2019-03-09T23:06:23.940Z,3.67
2019-03-09T23:08:52.062Z,4.57
2019-03-09T23:11:20.139Z,4.03
2019-03-09T23:13:48.217Z,3.97
2019-03-09T23:16:16.342Z,3.63
2019-03-09T23:18:44.395Z,3.37
2019-03-09T23:21:13.100Z,3.83
2019-03-09T23:23:41.182Z,4.30
2019-03-09T23:26:09.486Z,4.90
2019-03-09T23:28:44.186Z,3.80
2019-03-09T23:31:12.293Z,3.57
2019-03-09T23:33:40.417Z,3.87
2019-03-09T23:36:08.485Z,3.67
2019-03-09T23:38:36.559Z,3.27
2019-03-09T23:41:04.686Z,3.90
2019-03-09T23:43:32.804Z,4.03
2019-03-09T23:46:02.017Z,3.40
2019-03-09T23:48:30.135Z,3.40
2019-03-09T23:50:58.199Z,4.00
2019-03-09T23:53:26.316Z,3.50
2019-03-09T23:55:54.420Z,3.57
2019-03-09T23:58:22.523Z,3.00
